Time;durP1;ratioP1;P1;durP2;ratioP2;P2;SDS_P1;SDS_P2;PMS_P1;PMS_P2;Temp;Humidity;BMP_temperature;BMP_pressure;BME280_temperature;BME280_humidity;BME280_pressure;Samples;Min_cycle;Max_cycle;Signal;HPM_P1;HPM_P2
2021/07/06 00:01:44;;;;;;;5.97;4.18;;;;;;;;;;5110215;28;20020;-69
2021/07/06 00:04:10;;;;;;;6.32;4.13;;;;;;;;;;5110177;28;20048;-70
2021/07/06 00:06:37;;;;;;;7.75;5.13;;;;;;;;;;5109856;28;20065;-70
2021/07/06 00:09:04;;;;;;;8.27;4.60;;;;;;;;;;5110108;28;20020;-70
2021/07/06 00:11:31;;;;;;;8.00;4.85;;;;;;;;;;5108802;28;20073;-70
2021/07/06 00:13:57;;;;;;;6.55;4.68;;;;;;;;;;5108435;28;20043;-70
2021/07/06 00:17:22;;;;;;;6.80;4.68;;;;;;;;;;5110486;27;20502;-70
2021/07/06 00:19:49;;;;;;;7.97;4.47;;;;;;;;;;5109094;28;20445;-70
2021/07/06 00:22:15;;;;;;;7.15;4.65;;;;;;;;;;5108509;28;20118;-70
2021/07/06 00:24:41;;;;;;;8.77;4.95;;;;;;;;;;5110279;28;20020;-70
2021/07/06 00:27:07;;;;;;;6.93;4.60;;;;;;;;;;5110112;28;20078;-70
2021/07/06 00:29:34;;;;;;;8.57;5.20;;;;;;;;;;5109839;28;20024;-70
2021/07/06 00:32:00;;;;;;;8.32;4.85;;;;;;;;;;5110113;28;20024;-69
2021/07/06 00:34:26;;;;;;;7.07;4.65;;;;;;;;;;5110028;28;20103;-71
2021/07/06 00:36:53;;;;;;;7.18;4.28;;;;;;;;;;5108650;28;20032;-70
2021/07/06 00:39:19;;;;;;;8.82;4.32;;;;;;;;;;5109928;28;20043;-70
2021/07/06 00:41:46;;;;;;;7.82;4.95;;;;;;;;;;5108243;28;20080;-70
2021/07/06 00:44:13;;;;;;;9.07;5.13;;;;;;;;;;5110023;28;20024;-70
2021/07/06 00:47:39;;;;;;;8.23;4.88;;;;;;;;;;5110391;27;21048;-70
2021/07/06 00:50:07;;;;;;;9.40;5.30;;;;;;;;;;5109894;28;20487;-70
2021/07/06 00:52:33;;;;;;;8.98;5.60;;;;;;;;;;5126115;28;20024;-70
2021/07/06 00:55:00;;;;;;;9.05;5.43;;;;;;;;;;5110503;28;20077;-70
2021/07/06 00:57:29;;;;;;;8.57;5.00;;;;;;;;;;5109846;28;20491;-70
2021/07/06 01:01:11;;;;;;;7.90;5.00;;;;;;;;;;5110353;27;20772;-70
2021/07/06 01:03:37;;;;;;;6.82;4.35;;;;;;;;;;5110035;28;20379;-70
2021/07/06 01:06:26;;;;;;;6.97;4.55;;;;;;;;;;5069851;28;20419;-72
2021/07/06 01:08:53;;;;;;;8.38;5.45;;;;;;;;;;5069803;28;20741;-70
2021/07/06 01:11:19;;;;;;;7.68;5.07;;;;;;;;;;5069334;28;20028;-70
2021/07/06 01:13:45;;;;;;;7.68;4.85;;;;;;;;;;5069725;28;20029;-70
2021/07/06 01:16:11;;;;;;;8.98;5.28;;;;;;;;;;5069977;28;20531;-70
2021/07/06 01:20:53;;;;;;;8.88;4.93;;;;;;;;;;5110385;27;20518;-70
2021/07/06 01:25:35;;;;;;;9.10;5.68;;;;;;;;;;5109919;27;20823;-70
2021/07/06 01:28:02;;;;;;;7.18;5.07;;;;;;;;;;5110309;28;20051;-70
2021/07/06 01:31:17;;;;;;;9.80;5.50;;;;;;;;;;5110093;27;20385;-69
2021/07/06 01:33:43;;;;;;;10.02;5.93;;;;;;;;;;5110424;28;20023;-70
2021/07/06 01:36:36;;;;;;;10.45;5.50;;;;;;;;;;5110633;27;20501;-70
2021/07/06 01:39:02;;;;;;;9.43;6.15;;;;;;;;;;5109905;28;20019;-69
2021/07/06 01:41:28;;;;;;;8.40;5.10;;;;;;;;;;5110307;28;20052;-71
2021/07/06 01:43:55;;;;;;;7.93;5.50;;;;;;;;;;5110276;28;20024;-71
2021/07/06 01:46:21;;;;;;;7.32;4.90;;;;;;;;;;5109934;28;20027;-70
2021/07/06 01:48:47;;;;;;;10.02;5.82;;;;;;;;;;5110122;28;20098;-71
2021/07/06 01:51:13;;;;;;;9.43;5.63;;;;;;;;;;5108837;28;20111;-71
2021/07/06 01:53:39;;;;;;;8.90;5.93;;;;;;;;;;5109749;28;20012;-71
2021/07/06 01:56:06;;;;;;;8.82;6.20;;;;;;;;;;5110344;28;20063;-71
2021/07/06 01:58:33;;;;;;;10.40;6.13;;;;;;;;;;5110026;28;20103;-71
2021/07/06 02:01:00;;;;;;;12.30;6.13;;;;;;;;;;5109526;28;20032;-70
2021/07/06 02:03:26;;;;;;;8.80;5.97;;;;;;;;;;5108854;28;20424;-70
2021/07/06 02:05:57;;;;;;;11.90;6.22;;;;;;;;;;5109663;28;20498;-71
2021/07/06 02:08:24;;;;;;;10.10;6.25;;;;;;;;;;5108793;28;20035;-71
2021/07/06 02:10:51;;;;;;;9.02;5.82;;;;;;;;;;5109828;28;20024;-71
2021/07/06 02:13:19;;;;;;;10.85;6.47;;;;;;;;;;5107972;28;20046;-71
2021/07/06 02:19:12;;;;;;;8.25;5.97;;;;;;;;;;5131026;27;20319;-70
2021/07/06 02:21:38;;;;;;;9.98;6.47;;;;;;;;;;5130325;28;20032;-69
2021/07/06 02:24:04;;;;;;;9.80;6.90;;;;;;;;;;5130733;28;20432;-69
2021/07/06 02:26:30;;;;;;;8.65;6.78;;;;;;;;;;5130776;28;20024;-70
2021/07/06 02:28:57;;;;;;;9.10;6.63;;;;;;;;;;5130244;28;20023;-69
2021/07/06 02:31:23;;;;;;;10.00;6.70;;;;;;;;;;5130778;28;20023;-72
2021/07/06 02:33:49;;;;;;;9.75;6.50;;;;;;;;;;5130784;28;20468;-70
2021/07/06 02:36:15;;;;;;;10.02;6.32;;;;;;;;;;5130236;28;20427;-70
2021/07/06 02:38:41;;;;;;;9.05;6.53;;;;;;;;;;5130494;28;20027;-70
2021/07/06 02:41:08;;;;;;;10.60;6.90;;;;;;;;;;5130141;28;20028;-70
2021/07/06 02:43:47;;;;;;;10.57;6.57;;;;;;;;;;5110370;27;20389;-70
2021/07/06 02:46:14;;;;;;;11.63;6.82;;;;;;;;;;5110423;28;20027;-69
2021/07/06 02:48:40;;;;;;;10.25;7.13;;;;;;;;;;5109819;28;20028;-70
2021/07/06 02:51:06;;;;;;;12.23;7.05;;;;;;;;;;5108980;28;20054;-71
2021/07/06 02:53:32;;;;;;;8.77;6.43;;;;;;;;;;5110466;28;20047;-70
2021/07/06 02:55:58;;;;;;;9.13;7.05;;;;;;;;;;5109997;28;20095;-70
2021/07/06 02:58:25;;;;;;;10.85;6.90;;;;;;;;;;5108765;28;20115;-69
2021/07/06 03:02:53;;;;;;;12.68;6.82;;;;;;;;;;5109948;27;20450;-69
2021/07/06 03:05:20;;;;;;;10.57;6.47;;;;;;;;;;5109119;28;20388;-69
2021/07/06 03:07:47;;;;;;;10.25;6.60;;;;;;;;;;5110278;28;20380;-70
2021/07/06 03:10:15;;;;;;;8.98;6.55;;;;;;;;;;5109851;28;20047;-70
2021/07/06 03:14:22;;;;;;;10.18;7.07;;;;;;;;;;5110574;27;20517;-69
2021/07/06 03:16:48;;;;;;;9.48;7.32;;;;;;;;;;5110144;28;20028;-69
2021/07/06 03:20:09;;;;;;;11.18;7.55;;;;;;;;;;5110330;27;20504;-69
2021/07/06 03:23:43;;;;;;;11.20;6.75;;;;;;;;;;5109875;27;20528;-70
2021/07/06 03:26:28;;;;;;;8.90;6.75;;;;;;;;;;5110257;27;20372;-70
2021/07/06 03:29:58;;;;;;;9.18;7.10;;;;;;;;;;5110516;27;20380;-70
2021/07/06 03:32:24;;;;;;;11.15;7.45;;;;;;;;;;5110128;28;20054;-70
2021/07/06 03:34:50;;;;;;;12.20;7.55;;;;;;;;;;5108842;28;20046;-70
2021/07/06 03:37:16;;;;;;;10.82;7.45;;;;;;;;;;5110082;28;20023;-69
2021/07/06 03:39:43;;;;;;;9.57;7.20;;;;;;;;;;5110312;28;20052;-70
2021/07/06 03:42:09;;;;;;;9.40;7.00;;;;;;;;;;5110133;28;20529;-69
2021/07/06 03:44:36;;;;;;;9.77;7.18;;;;;;;;;;5109800;28;20059;-70
2021/07/06 03:47:03;;;;;;;10.55;7.18;;;;;;;;;;5110210;28;20103;-71
2021/07/06 03:49:29;;;;;;;11.02;7.43;;;;;;;;;;5110164;28;20040;-70
2021/07/06 03:51:55;;;;;;;11.32;7.95;;;;;;;;;;5109869;28;20020;-72
2021/07/06 03:54:21;;;;;;;11.77;7.53;;;;;;;;;;5110078;28;20031;-70
2021/07/06 03:56:47;;;;;;;12.07;7.75;;;;;;;;;;5109976;28;20024;-70
2021/07/06 03:59:14;;;;;;;9.90;7.72;;;;;;;;;;5108056;28;20020;-70
2021/07/06 04:01:40;;;;;;;10.98;7.43;;;;;;;;;;5108587;28;20504;-70
2021/07/06 04:04:06;;;;;;;9.82;7.78;;;;;;;;;;5109754;28;20027;-70
2021/07/06 04:08:03;;;;;;;9.98;7.32;;;;;;;;;;5110399;27;20385;-71
2021/07/06 04:10:30;;;;;;;10.88;7.60;;;;;;;;;;5110446;28;20023;-70
2021/07/06 04:12:56;;;;;;;10.13;7.18;;;;;;;;;;5110000;28;20507;-70
2021/07/06 04:15:23;;;;;;;11.43;7.75;;;;;;;;;;5110436;28;20123;-70
2021/07/06 04:17:50;;;;;;;13.38;7.03;;;;;;;;;;5110200;28;20043;-71
2021/07/06 04:20:16;;;;;;;9.55;7.28;;;;;;;;;;5109879;28;20020;-71
2021/07/06 04:22:43;;;;;;;11.35;6.80;;;;;;;;;;5110144;28;20024;-71
2021/07/06 04:25:10;;;;;;;10.75;7.88;;;;;;;;;;5110037;28;20020;-71
2021/07/06 04:27:37;;;;;;;11.65;7.07;;;;;;;;;;5109702;28;20032;-72
2021/07/06 04:30:04;;;;;;;10.55;6.70;;;;;;;;;;5110065;28;20503;-71
2021/07/06 04:32:30;;;;;;;9.20;7.47;;;;;;;;;;5109949;28;20099;-71
2021/07/06 04:34:57;;;;;;;11.63;7.13;;;;;;;;;;5109484;28;20023;-71
2021/07/06 04:37:23;;;;;;;10.63;7.40;;;;;;;;;;5109842;28;20422;-70
2021/07/06 04:39:49;;;;;;;11.93;7.72;;;;;;;;;;5109758;28;20142;-70
2021/07/06 04:42:16;;;;;;;9.95;7.13;;;;;;;;;;5109402;28;20023;-70
2021/07/06 04:44:42;;;;;;;10.55;7.47;;;;;;;;;;5108591;28;20024;-70
2021/07/06 04:48:47;;;;;;;9.57;7.28;;;;;;;;;;5110189;27;20407;-70
2021/07/06 04:51:14;;;;;;;9.80;7.07;;;;;;;;;;5110433;28;20030;-70
2021/07/06 04:53:41;;;;;;;9.10;7.20;;;;;;;;;;5110288;28;20047;-72
2021/07/06 04:56:08;;;;;;;13.00;7.65;;;;;;;;;;5109970;28;20099;-71
2021/07/06 04:58:36;;;;;;;10.48;7.45;;;;;;;;;;5110175;28;20024;-69
2021/07/06 05:01:02;;;;;;;10.00;7.18;;;;;;;;;;5109482;28;20482;-66
2021/07/06 05:03:29;;;;;;;12.60;7.75;;;;;;;;;;5113671;28;20012;-65
2021/07/06 05:05:56;;;;;;;14.23;8.85;;;;;;;;;;5130715;28;20053;-66
2021/07/06 05:08:22;;;;;;;12.90;9.68;;;;;;;;;;5130369;28;20372;-66
2021/07/06 05:10:48;;;;;;;15.85;8.35;;;;;;;;;;5109416;28;20020;-65
2021/07/06 05:13:15;;;;;;;13.32;8.93;;;;;;;;;;5108247;28;20153;-66
2021/07/06 05:15:41;;;;;;;19.90;10.43;;;;;;;;;;5109142;28;20031;-66
2021/07/06 05:18:08;;;;;;;15.27;8.82;;;;;;;;;;5108189;28;20111;-68
2021/07/06 05:20:34;;;;;;;13.95;9.77;;;;;;;;;;5108243;28;20500;-67
2021/07/06 05:23:00;;;;;;;12.80;8.48;;;;;;;;;;5101815;28;20077;-66
2021/07/06 05:25:26;;;;;;;12.27;8.05;;;;;;;;;;5104981;28;20435;-65
2021/07/06 05:27:53;;;;;;;12.07;7.70;;;;;;;;;;5107709;28;20063;-65
2021/07/06 05:30:20;;;;;;;12.65;7.60;;;;;;;;;;5107308;28;20502;-66
2021/07/06 05:32:46;;;;;;;10.10;7.43;;;;;;;;;;5107416;28;20032;-69
2021/07/06 05:36:36;;;;;;;11.48;7.30;;;;;;;;;;5110090;27;21050;-69
2021/07/06 05:39:05;;;;;;;9.40;6.97;;;;;;;;;;5101097;28;20024;-69
2021/07/06 05:41:32;;;;;;;12.63;7.15;;;;;;;;;;5117556;28;20081;-68
2021/07/06 05:43:58;;;;;;;10.25;6.97;;;;;;;;;;5128436;28;20374;-68
2021/07/06 05:46:28;;;;;;;9.23;6.60;;;;;;;;;;5129863;28;20086;-68
2021/07/06 05:48:54;;;;;;;12.50;6.57;;;;;;;;;;5128749;28;20032;-70
2021/07/06 05:51:20;;;;;;;10.68;7.07;;;;;;;;;;5128786;28;20026;-70
2021/07/06 05:53:49;;;;;;;9.68;7.38;;;;;;;;;;5129047;28;20031;-69
2021/07/06 05:56:18;;;;;;;15.63;8.75;;;;;;;;;;5129635;28;20027;-68
2021/07/06 06:00:38;;;;;;;9.25;6.47;;;;;;;;;;5065679;28;20465;-69
2021/07/06 06:03:10;;;;;;;11.68;7.03;;;;;;;;;;5045544;28;20096;-69
2021/07/06 06:05:37;;;;;;;10.48;6.38;;;;;;;;;;5035969;28;20025;-68
2021/07/06 06:08:03;;;;;;;9.15;7.07;;;;;;;;;;5034807;28;20108;-69
2021/07/06 06:10:30;;;;;;;12.75;7.85;;;;;;;;;;5036472;28;20034;-69
2021/07/06 06:13:40;;;;;;;11.85;6.57;;;;;;;;;;5104979;27;20392;-69
2021/07/06 06:16:07;;;;;;;10.25;6.75;;;;;;;;;;5105944;28;20036;-69
2021/07/06 06:18:33;;;;;;;9.68;6.38;;;;;;;;;;5108343;28;20054;-68
2021/07/06 06:20:59;;;;;;;10.73;7.03;;;;;;;;;;5108108;28;20932;-68
2021/07/06 06:23:26;;;;;;;10.70;6.35;;;;;;;;;;5110294;28;20483;-68
2021/07/06 06:25:52;;;;;;;10.85;7.03;;;;;;;;;;5110255;28;20028;-67
2021/07/06 06:28:18;;;;;;;9.73;6.25;;;;;;;;;;5107144;28;20387;-68
2021/07/06 06:30:44;;;;;;;11.27;6.28;;;;;;;;;;5099459;28;20030;-67
2021/07/06 06:33:11;;;;;;;11.52;6.25;;;;;;;;;;5104064;28;20042;-67
2021/07/06 06:35:39;;;;;;;10.48;6.30;;;;;;;;;;5094235;28;20056;-68
2021/07/06 06:38:05;;;;;;;9.65;6.70;;;;;;;;;;5091951;28;20031;-67
2021/07/06 06:40:32;;;;;;;11.13;6.50;;;;;;;;;;5098996;28;20023;-69
2021/07/06 06:42:58;;;;;;;9.07;6.03;;;;;;;;;;5092108;28;20027;-67
2021/07/06 06:45:24;;;;;;;9.00;6.22;;;;;;;;;;5087620;28;20024;-69
2021/07/06 06:47:51;;;;;;;10.35;6.45;;;;;;;;;;5088879;28;20111;-70
2021/07/06 06:50:17;;;;;;;9.45;6.13;;;;;;;;;;5088017;28;20016;-71
2021/07/06 06:52:43;;;;;;;11.40;5.60;;;;;;;;;;5088097;28;20036;-70
2021/07/06 06:55:10;;;;;;;10.13;6.22;;;;;;;;;;5088855;28;20491;-69
2021/07/06 06:57:36;;;;;;;10.98;6.55;;;;;;;;;;5088636;28;20034;-67
2021/07/06 07:00:04;;;;;;;11.73;6.35;;;;;;;;;;5088488;28;20016;-67
2021/07/06 07:02:31;;;;;;;12.63;6.38;;;;;;;;;;5088404;28;20402;-68
2021/07/06 07:04:57;;;;;;;12.90;6.28;;;;;;;;;;5089279;28;20202;-68
2021/07/06 07:07:24;;;;;;;9.40;5.65;;;;;;;;;;5088976;28;20080;-68
2021/07/06 07:09:51;;;;;;;13.05;5.20;;;;;;;;;;5087890;28;20038;-67
2021/07/06 07:12:17;;;;;;;9.65;5.43;;;;;;;;;;5087273;28;20041;-68
2021/07/06 07:14:44;;;;;;;9.27;6.00;;;;;;;;;;5088137;28;20094;-68
2021/07/06 07:17:11;;;;;;;9.32;5.10;;;;;;;;;;5097730;28;20036;-67
2021/07/06 07:19:38;;;;;;;8.48;4.85;;;;;;;;;;5090167;28;20107;-68
2021/07/06 07:22:05;;;;;;;7.97;5.30;;;;;;;;;;5088165;28;20032;-68
2021/07/06 07:24:32;;;;;;;8.00;5.05;;;;;;;;;;5077250;28;20384;-68
2021/07/06 07:27:01;;;;;;;8.13;5.07;;;;;;;;;;5075171;28;20464;-70
2021/07/06 07:29:27;;;;;;;9.57;5.35;;;;;;;;;;5073976;28;20115;-68
2021/07/06 07:31:54;;;;;;;10.10;5.60;;;;;;;;;;5074656;28;20024;-68
2021/07/06 07:34:20;;;;;;;11.93;5.40;;;;;;;;;;5074960;28;20031;-68
2021/07/06 07:36:47;;;;;;;9.02;5.55;;;;;;;;;;5074373;28;20025;-68
2021/07/06 07:39:13;;;;;;;10.35;5.68;;;;;;;;;;5074840;28;20050;-68
2021/07/06 07:41:39;;;;;;;10.55;5.03;;;;;;;;;;5073714;28;20032;-68
2021/07/06 07:44:06;;;;;;;8.95;5.75;;;;;;;;;;5081555;28;20020;-70
2021/07/06 07:46:32;;;;;;;8.85;5.47;;;;;;;;;;5081295;28;20389;-65
2021/07/06 07:48:59;;;;;;;8.35;5.53;;;;;;;;;;5063151;28;20025;-67
2021/07/06 07:51:25;;;;;;;9.98;5.93;;;;;;;;;;5054337;28;20044;-68
2021/07/06 07:53:52;;;;;;;7.90;4.95;;;;;;;;;;5057123;28;20032;-72
2021/07/06 07:56:18;;;;;;;8.00;5.43;;;;;;;;;;5074153;28;21021;-69
2021/07/06 07:58:44;;;;;;;8.45;5.22;;;;;;;;;;5065546;28;20468;-68
2021/07/06 08:01:10;;;;;;;8.10;5.25;;;;;;;;;;5073947;28;20070;-68
2021/07/06 08:03:36;;;;;;;16.52;5.75;;;;;;;;;;5073474;28;20028;-71
2021/07/06 08:06:03;;;;;;;8.10;5.70;;;;;;;;;;5069980;28;20376;-71
2021/07/06 08:08:29;;;;;;;9.02;4.75;;;;;;;;;;5073719;28;20019;-70
2021/07/06 08:10:57;;;;;;;8.00;5.07;;;;;;;;;;5088088;28;20078;-72
2021/07/06 08:13:24;;;;;;;8.52;5.22;;;;;;;;;;5093429;28;20044;-73
2021/07/06 08:15:51;;;;;;;8.77;5.55;;;;;;;;;;5093812;28;20027;-72
2021/07/06 08:18:18;;;;;;;7.78;5.30;;;;;;;;;;5092285;28;20497;-72
2021/07/06 08:20:45;;;;;;;8.88;5.75;;;;;;;;;;5092320;28;20023;-71
2021/07/06 08:23:11;;;;;;;9.10;5.28;;;;;;;;;;5093700;28;20024;-72
2021/07/06 08:25:38;;;;;;;9.23;4.85;;;;;;;;;;5093815;28;20384;-71
2021/07/06 08:28:04;;;;;;;8.75;5.47;;;;;;;;;;5091420;28;20019;-71
2021/07/06 08:30:30;;;;;;;7.65;5.15;;;;;;;;;;5077473;28;20029;-71
2021/07/06 08:32:58;;;;;;;9.63;4.70;;;;;;;;;;5085181;28;20080;-69
2021/07/06 08:35:24;;;;;;;8.32;5.65;;;;;;;;;;5083756;28;20028;-69
2021/07/06 08:37:50;;;;;;;11.30;6.57;;;;;;;;;;5070584;28;20024;-70
2021/07/06 08:40:17;;;;;;;9.32;5.32;;;;;;;;;;5071507;28;20031;-70
2021/07/06 08:42:44;;;;;;;9.60;5.65;;;;;;;;;;5072526;28;20032;-70
2021/07/06 08:45:11;;;;;;;7.60;5.00;;;;;;;;;;5078884;28;20026;-70
2021/07/06 08:47:38;;;;;;;8.02;5.57;;;;;;;;;;5091444;28;20119;-71
2021/07/06 08:50:08;;;;;;;6.90;4.72;;;;;;;;;;5091488;28;20020;-71
2021/07/06 08:52:38;;;;;;;11.55;7.05;;;;;;;;;;5091510;28;20036;-70
2021/07/06 08:55:04;;;;;;;10.55;5.95;;;;;;;;;;5090734;28;20469;-70
2021/07/06 08:57:31;;;;;;;8.63;5.45;;;;;;;;;;5090969;28;20035;-70
2021/07/06 08:59:57;;;;;;;9.82;4.97;;;;;;;;;;5092121;28;20051;-71
2021/07/06 09:02:23;;;;;;;9.73;5.22;;;;;;;;;;5090225;28;20111;-68
2021/07/06 09:04:50;;;;;;;7.60;4.97;;;;;;;;;;5073974;28;20028;-68
2021/07/06 09:07:17;;;;;;;7.38;4.53;;;;;;;;;;5072817;28;20024;-68
2021/07/06 09:09:44;;;;;;;8.68;4.95;;;;;;;;;;5079269;28;20530;-69
2021/07/06 09:12:12;;;;;;;8.20;5.18;;;;;;;;;;5078549;28;20056;-68
2021/07/06 09:14:41;;;;;;;6.72;4.35;;;;;;;;;;5072652;28;20017;-68
2021/07/06 09:17:08;;;;;;;17.65;6.32;;;;;;;;;;5070937;28;20063;-68
2021/07/06 09:19:34;;;;;;;8.60;4.65;;;;;;;;;;5075286;28;20485;-69
2021/07/06 09:22:14;;;;;;;8.95;4.95;;;;;;;;;;5075910;28;20024;-69
2021/07/06 09:24:41;;;;;;;7.05;4.68;;;;;;;;;;5077034;28;20451;-68
2021/07/06 09:27:20;;;;;;;9.43;4.65;;;;;;;;;;5072610;28;20052;-69
2021/07/06 09:30:02;;;;;;;9.32;4.57;;;;;;;;;;5072272;28;20426;-67
2021/07/06 09:32:28;;;;;;;6.45;4.45;;;;;;;;;;5080951;28;20558;-68
2021/07/06 09:34:54;;;;;;;6.32;4.50;;;;;;;;;;5075257;28;20032;-68
2021/07/06 09:37:21;;;;;;;7.70;4.70;;;;;;;;;;5087878;28;20130;-68
2021/07/06 09:39:47;;;;;;;7.40;4.55;;;;;;;;;;5092622;28;20475;-68
2021/07/06 09:42:16;;;;;;;10.00;5.05;;;;;;;;;;5092134;28;20179;-68
2021/07/06 09:44:42;;;;;;;8.10;4.68;;;;;;;;;;5092200;28;20020;-68
2021/07/06 09:47:10;;;;;;;8.50;4.68;;;;;;;;;;5091127;28;20052;-68
2021/07/06 09:49:40;;;;;;;7.47;4.97;;;;;;;;;;5091062;28;20472;-68
2021/07/06 09:52:17;;;;;;;6.38;3.95;;;;;;;;;;5090698;28;20088;-68
2021/07/06 09:54:50;;;;;;;6.13;4.00;;;;;;;;;;5092451;28;20430;-68
2021/07/06 09:57:25;;;;;;;13.60;4.55;;;;;;;;;;5092128;28;20020;-68
2021/07/06 09:59:55;;;;;;;8.68;4.45;;;;;;;;;;5092628;28;20020;-68
2021/07/06 10:02:23;;;;;;;6.43;4.00;;;;;;;;;;5091069;28;20495;-68
2021/07/06 10:04:52;;;;;;;6.40;4.03;;;;;;;;;;5092315;28;20016;-68
2021/07/06 10:07:23;;;;;;;12.75;3.92;;;;;;;;;;5092494;28;20028;-68
2021/07/06 10:09:49;;;;;;;7.00;3.63;;;;;;;;;;5091137;28;20034;-69
2021/07/06 10:12:19;;;;;;;6.13;3.83;;;;;;;;;;5079494;28;20055;-69
2021/07/06 10:14:45;;;;;;;6.82;3.63;;;;;;;;;;5086661;28;20128;-71
2021/07/06 10:17:12;;;;;;;5.88;3.67;;;;;;;;;;5070745;28;20507;-70
2021/07/06 10:19:44;;;;;;;9.98;4.18;;;;;;;;;;5071712;28;20028;-71
2021/07/06 10:22:11;;;;;;;7.13;3.80;;;;;;;;;;5071992;28;20056;-71
2021/07/06 10:24:38;;;;;;;6.35;3.35;;;;;;;;;;5072071;28;20017;-71
2021/07/06 10:27:07;;;;;;;6.13;3.58;;;;;;;;;;5071545;28;20499;-70
2021/07/06 10:29:34;;;;;;;5.55;3.60;;;;;;;;;;5072008;28;20016;-70
2021/07/06 10:32:01;;;;;;;5.80;3.35;;;;;;;;;;5070931;28;20535;-70
2021/07/06 10:34:28;;;;;;;7.72;3.67;;;;;;;;;;5071658;28;20032;-71
2021/07/06 10:36:58;;;;;;;7.05;3.05;;;;;;;;;;5068715;28;20094;-71
2021/07/06 10:39:43;;;;;;;5.75;3.22;;;;;;;;;;5070938;28;20533;-69
2021/07/06 10:42:09;;;;;;;5.97;3.58;;;;;;;;;;5070006;28;20050;-70
2021/07/06 10:44:37;;;;;;;5.30;2.85;;;;;;;;;;5070100;28;20013;-70
2021/07/06 10:47:04;;;;;;;4.90;3.28;;;;;;;;;;5069430;28;20028;-69
2021/07/06 10:49:33;;;;;;;6.13;3.58;;;;;;;;;;5069557;28;20580;-70
2021/07/06 10:52:01;;;;;;;5.97;2.70;;;;;;;;;;5069726;28;20032;-71
2021/07/06 10:54:29;;;;;;;4.90;3.05;;;;;;;;;;5071161;28;20032;-70
2021/07/06 10:56:55;;;;;;;6.28;3.42;;;;;;;;;;5071524;28;20025;-71
2021/07/06 10:59:26;;;;;;;5.47;3.70;;;;;;;;;;5072761;28;20028;-71
2021/07/06 11:01:58;;;;;;;4.90;3.10;;;;;;;;;;5073820;28;20037;-71
2021/07/06 11:04:43;;;;;;;5.28;2.67;;;;;;;;;;5075524;28;20473;-71
2021/07/06 11:07:36;;;;;;;6.45;3.17;;;;;;;;;;5075523;28;20035;-71
2021/07/06 11:10:04;;;;;;;4.72;3.28;;;;;;;;;;5090513;28;20048;-71
2021/07/06 11:12:36;;;;;;;5.82;3.17;;;;;;;;;;5074925;28;20416;-71
2021/07/06 11:15:04;;;;;;;5.47;3.22;;;;;;;;;;5074384;28;20535;-71
2021/07/06 11:17:33;;;;;;;6.65;3.65;;;;;;;;;;5075377;28;20372;-72
2021/07/06 11:20:01;;;;;;;5.47;2.70;;;;;;;;;;5074089;28;20035;-71
2021/07/06 11:22:39;;;;;;;7.05;3.78;;;;;;;;;;5074971;28;20025;-71
2021/07/06 11:25:20;;;;;;;7.25;2.88;;;;;;;;;;5075519;28;20029;-72
2021/07/06 11:28:00;;;;;;;4.95;3.22;;;;;;;;;;5069540;28;20472;-73
2021/07/06 11:30:35;;;;;;;3.80;2.70;;;;;;;;;;5074706;28;20101;-70
2021/07/06 11:33:03;;;;;;;5.35;2.88;;;;;;;;;;5071822;28;20032;-71
2021/07/06 11:35:34;;;;;;;6.43;3.25;;;;;;;;;;5083195;28;20125;-72
2021/07/06 11:38:03;;;;;;;11.38;2.90;;;;;;;;;;5093455;28;20058;-71
2021/07/06 11:40:29;;;;;;;5.55;3.75;;;;;;;;;;5095305;28;20021;-72
2021/07/06 11:42:55;;;;;;;7.47;3.13;;;;;;;;;;5094951;28;20031;-72
2021/07/06 11:45:22;;;;;;;7.05;3.42;;;;;;;;;;5095016;28;20091;-70
2021/07/06 11:47:48;;;;;;;4.63;2.80;;;;;;;;;;5095059;28;20111;-71
2021/07/06 11:50:24;;;;;;;5.57;3.40;;;;;;;;;;5093359;28;20103;-73
2021/07/06 11:52:50;;;;;;;6.70;2.70;;;;;;;;;;5094918;28;20561;-71
2021/07/06 11:55:23;;;;;;;10.13;3.05;;;;;;;;;;5094942;28;20024;-71
2021/07/06 11:57:57;;;;;;;6.72;2.72;;;;;;;;;;5094616;28;20024;-70
2021/07/06 12:00:24;;;;;;;4.68;2.60;;;;;;;;;;5094756;28;20551;-70
2021/07/06 12:02:50;;;;;;;5.95;3.50;;;;;;;;;;5094795;28;20028;-70
2021/07/06 12:05:17;;;;;;;5.88;2.95;;;;;;;;;;5094653;28;20024;-71
2021/07/06 12:07:44;;;;;;;8.18;3.80;;;;;;;;;;5094635;28;20032;-70
2021/07/06 12:10:10;;;;;;;5.30;2.83;;;;;;;;;;5094409;28;20159;-73
2021/07/06 12:12:37;;;;;;;4.40;2.25;;;;;;;;;;5092526;28;20139;-70
2021/07/06 12:15:03;;;;;;;6.28;3.22;;;;;;;;;;5094491;28;20043;-70
2021/07/06 12:17:30;;;;;;;3.53;2.50;;;;;;;;;;5094497;28;20020;-71
2021/07/06 12:19:58;;;;;;;3.92;2.60;;;;;;;;;;5092789;28;20589;-71
2021/07/06 12:22:25;;;;;;;5.57;3.10;;;;;;;;;;5093597;28;20039;-70
2021/07/06 12:24:52;;;;;;;3.67;2.67;;;;;;;;;;5094453;28;20495;-70
2021/07/06 12:27:19;;;;;;;6.22;2.78;;;;;;;;;;5092684;28;20028;-70
2021/07/06 12:29:54;;;;;;;5.45;2.95;;;;;;;;;;5094233;28;20303;-71
2021/07/06 12:32:20;;;;;;;6.32;3.75;;;;;;;;;;5093982;28;20139;-70
2021/07/06 12:34:53;;;;;;;6.20;3.10;;;;;;;;;;5094744;28;20024;-70
2021/07/06 12:37:21;;;;;;;6.57;3.30;;;;;;;;;;5087927;28;20471;-70
2021/07/06 12:39:49;;;;;;;4.88;3.25;;;;;;;;;;5073199;28;20021;-72
2021/07/06 12:42:19;;;;;;;6.97;3.35;;;;;;;;;;5073702;28;20500;-72
2021/07/06 12:44:46;;;;;;;11.38;3.00;;;;;;;;;;5072809;28;20024;-72
2021/07/06 12:47:26;;;;;;;5.05;3.17;;;;;;;;;;5073343;28;20046;-71
2021/07/06 12:49:58;;;;;;;7.15;3.25;;;;;;;;;;5073655;28;20488;-72
2021/07/06 12:52:26;;;;;;;4.85;3.00;;;;;;;;;;5073350;28;20029;-71
2021/07/06 12:54:53;;;;;;;9.57;3.30;;;;;;;;;;5073015;28;20028;-72
2021/07/06 12:57:27;;;;;;;3.80;2.70;;;;;;;;;;5073285;28;20043;-71
2021/07/06 13:00:10;;;;;;;5.72;2.78;;;;;;;;;;5073335;28;20028;-71
2021/07/06 13:02:36;;;;;;;5.07;3.05;;;;;;;;;;5072101;28;20021;-71
2021/07/06 13:05:03;;;;;;;5.72;2.90;;;;;;;;;;5073274;28;20025;-71
2021/07/06 13:07:30;;;;;;;3.83;2.60;;;;;;;;;;5072942;28;20020;-69
2021/07/06 13:10:06;;;;;;;4.57;2.83;;;;;;;;;;5073166;28;20025;-71
2021/07/06 13:12:33;;;;;;;4.57;2.92;;;;;;;;;;5072970;28;20040;-71
2021/07/06 13:14:59;;;;;;;4.50;3.03;;;;;;;;;;5071895;28;20458;-72
2021/07/06 13:17:28;;;;;;;4.57;3.22;;;;;;;;;;5071754;28;20028;-72
2021/07/06 13:20:08;;;;;;;6.72;3.40;;;;;;;;;;5073139;28;20013;-72
2021/07/06 13:22:38;;;;;;;5.22;3.38;;;;;;;;;;5072218;28;20426;-72
2021/07/06 13:25:08;;;;;;;5.10;3.63;;;;;;;;;;5073161;28;20537;-72
2021/07/06 13:27:35;;;;;;;5.18;3.35;;;;;;;;;;5071861;28;20520;-72
2021/07/06 13:30:02;;;;;;;5.28;3.38;;;;;;;;;;5072654;28;20404;-70
2021/07/06 13:32:28;;;;;;;5.05;3.30;;;;;;;;;;5071479;28;20056;-71
2021/07/06 13:34:55;;;;;;;6.35;3.97;;;;;;;;;;5072883;28;20029;-71
2021/07/06 13:37:22;;;;;;;7.45;3.47;;;;;;;;;;5072275;28;20021;-71
2021/07/06 13:39:48;;;;;;;6.80;3.80;;;;;;;;;;5072768;28;20020;-71
2021/07/06 13:42:14;;;;;;;4.53;3.35;;;;;;;;;;5073079;28;20029;-71
2021/07/06 13:44:42;;;;;;;11.00;4.40;;;;;;;;;;5071264;28;20028;-71
2021/07/06 13:47:08;;;;;;;4.55;3.33;;;;;;;;;;5072770;28;20020;-71
2021/07/06 13:49:34;;;;;;;4.88;3.25;;;;;;;;;;5072338;28;20433;-72
2021/07/06 13:52:01;;;;;;;5.10;3.30;;;;;;;;;;5072556;28;20024;-71
2021/07/06 13:54:29;;;;;;;4.85;3.15;;;;;;;;;;5072657;28;20028;-72
2021/07/06 13:57:00;;;;;;;5.47;3.40;;;;;;;;;;5072328;28;20021;-71
2021/07/06 13:59:27;;;;;;;13.55;3.88;;;;;;;;;;5072679;28;20381;-72
2021/07/06 14:01:53;;;;;;;5.40;3.60;;;;;;;;;;5072466;28;20044;-70
2021/07/06 14:04:20;;;;;;;4.97;3.17;;;;;;;;;;5072294;28;20146;-71
2021/07/06 14:06:49;;;;;;;6.30;3.58;;;;;;;;;;5072582;28;20361;-70
2021/07/06 14:09:16;;;;;;;5.50;3.35;;;;;;;;;;5070834;28;20055;-69
2021/07/06 14:11:43;;;;;;;5.63;3.60;;;;;;;;;;5071807;28;20075;-70
2021/07/06 14:14:09;;;;;;;5.72;3.67;;;;;;;;;;5072373;28;20381;-70
2021/07/06 14:16:35;;;;;;;4.70;3.25;;;;;;;;;;5072363;28;20024;-71
2021/07/06 14:19:02;;;;;;;11.40;3.75;;;;;;;;;;5070643;28;20025;-71
2021/07/06 14:21:28;;;;;;;5.00;3.55;;;;;;;;;;5071229;28;20388;-70
2021/07/06 14:23:54;;;;;;;5.07;3.20;;;;;;;;;;5072529;28;20063;-70
2021/07/06 14:26:21;;;;;;;4.82;3.03;;;;;;;;;;5071779;28;20032;-70
2021/07/06 14:28:51;;;;;;;5.05;3.30;;;;;;;;;;5072384;28;20025;-71
2021/07/06 14:31:18;;;;;;;4.38;3.05;;;;;;;;;;5070945;28;20021;-71
2021/07/06 14:33:44;;;;;;;5.10;3.53;;;;;;;;;;5071469;28;20154;-70
2021/07/06 14:36:11;;;;;;;6.10;3.90;;;;;;;;;;5076155;28;20043;-70
2021/07/06 14:38:37;;;;;;;5.25;3.35;;;;;;;;;;5074558;28;20024;-71
2021/07/06 14:41:03;;;;;;;5.25;3.45;;;;;;;;;;5076137;28;20025;-70
2021/07/06 14:43:30;;;;;;;3.95;3.13;;;;;;;;;;5075024;28;20051;-70
2021/07/06 14:45:56;;;;;;;4.28;3.00;;;;;;;;;;5075893;28;20053;-71
2021/07/06 14:48:22;;;;;;;8.00;4.00;;;;;;;;;;5076183;28;20029;-70
2021/07/06 14:50:49;;;;;;;4.40;3.72;;;;;;;;;;5076155;28;20096;-71
2021/07/06 14:53:15;;;;;;;6.93;3.33;;;;;;;;;;5075545;28;20063;-71
2021/07/06 14:55:41;;;;;;;4.32;3.03;;;;;;;;;;5075856;28;20021;-71
2021/07/06 14:58:07;;;;;;;6.40;3.03;;;;;;;;;;5074525;28;20158;-69
2021/07/06 15:00:34;;;;;;;4.80;3.00;;;;;;;;;;5074241;28;20050;-71
2021/07/06 15:03:02;;;;;;;4.88;3.55;;;;;;;;;;5074729;28;20039;-71
2021/07/06 15:05:29;;;;;;;7.22;3.13;;;;;;;;;;5075789;28;20020;-70
2021/07/06 15:07:55;;;;;;;4.40;2.60;;;;;;;;;;5075269;28;20039;-72